Time;durP1;ratioP1;P1;durP2;ratioP2;P2;SDS_P1;SDS_P2;PMS_P1;PMS_P2;Temp;Humidity;BMP_temperature;BMP_pressure;BME280_temperature;BME280_humidity;BME280_pressure;Samples;Min_cycle;Max_cycle;Signal;HPM_P1;HPM_P2
2022/07/01 00:01:59;;;;;;;7.60;1.23;;;13.10;99.90;;;;;;5005925;28;20065;-72
2022/07/01 00:04:27;;;;;;;3.22;1.20;;;13.00;99.90;;;;;;5009824;28;20057;-72
2022/07/01 00:06:54;;;;;;;5.28;1.75;;;12.90;99.90;;;;;;5010482;28;20029;-71
2022/07/01 00:09:20;;;;;;;9.63;1.50;;;12.80;99.90;;;;;;5009453;28;20018;-71
2022/07/01 00:11:46;;;;;;;6.45;1.73;;;12.70;99.90;;;;;;5011179;28;20030;-72
2022/07/01 00:14:11;;;;;;;10.65;1.40;;;12.60;99.90;;;;;;5009862;28;20029;-71
2022/07/01 00:16:37;;;;;;;4.20;1.15;;;12.60;99.90;;;;;;5009102;28;20025;-71
2022/07/01 00:19:03;;;;;;;10.13;2.03;;;12.50;99.90;;;;;;5010940;28;20034;-71
2022/07/01 00:21:29;;;;;;;6.05;1.58;;;12.60;99.90;;;;;;5008900;28;20367;-71
2022/07/01 00:23:55;;;;;;;13.00;1.42;;;12.50;99.90;;;;;;5011294;28;20113;-72
2022/07/01 00:26:21;;;;;;;8.82;1.50;;;12.60;99.90;;;;;;5005597;28;20538;-72
2022/07/01 00:28:46;;;;;;;4.88;1.42;;;12.60;99.90;;;;;;5008867;28;20022;-71
2022/07/01 00:31:12;;;;;;;4.75;1.65;;;12.60;99.90;;;;;;5010918;28;20394;-71
2022/07/01 00:33:38;;;;;;;9.48;1.42;;;12.50;99.90;;;;;;5009200;28;20065;-70
2022/07/01 00:36:04;;;;;;;6.78;2.17;;;12.50;99.90;;;;;;5010183;28;20080;-71
2022/07/01 00:38:29;;;;;;;6.97;1.23;;;12.40;99.90;;;;;;5008956;28;20026;-71
2022/07/01 00:40:56;;;;;;;1.70;1.00;;;12.30;99.90;;;;;;5010894;28;20029;-70
2022/07/01 00:43:24;;;;;;;4.20;1.45;;;12.30;99.90;;;;;;5007877;28;20032;-70
2022/07/01 00:45:50;;;;;;;9.88;2.22;;;12.30;99.90;;;;;;5009913;28;20037;-67
2022/07/01 00:48:18;;;;;;;7.15;2.00;;;12.30;99.90;;;;;;5006466;28;20125;-71
2022/07/01 00:50:45;;;;;;;6.18;2.63;;;12.30;99.90;;;;;;5008663;28;20026;-71
2022/07/01 00:53:12;;;;;;;4.18;1.30;;;12.20;99.90;;;;;;5010363;28;20028;-71
2022/07/01 00:55:37;;;;;;;4.68;1.10;;;12.20;99.90;;;;;;5014663;28;20084;-71
2022/07/01 00:58:03;;;;;;;5.05;1.10;;;12.20;99.90;;;;;;5000058;28;20026;-70
2022/07/01 01:00:29;;;;;;;9.93;2.00;;;12.20;99.90;;;;;;5008585;28;20030;-70
2022/07/01 01:02:55;;;;;;;5.93;1.50;;;12.30;99.90;;;;;;5009988;28;20494;-70
2022/07/01 01:05:21;;;;;;;8.77;1.30;;;12.40;99.90;;;;;;5008566;28;20026;-70
2022/07/01 01:07:50;;;;;;;4.82;1.45;;;12.50;99.90;;;;;;5009851;28;20029;-70
2022/07/01 01:10:17;;;;;;;9.00;1.38;;;12.60;99.90;;;;;;5009440;28;20363;-70
2022/07/01 01:12:43;;;;;;;8.40;1.30;;;12.80;99.90;;;;;;5006794;28;20034;-70
2022/07/01 01:15:10;;;;;;;12.77;1.80;;;12.90;99.90;;;;;;5009812;28;20033;-71
2022/07/01 01:17:37;;;;;;;3.88;0.88;;;13.00;99.90;;;;;;5008452;28;20034;-69
2022/07/01 01:20:03;;;;;;;10.13;1.50;;;13.10;99.90;;;;;;5010334;28;20034;-68
2022/07/01 01:22:29;;;;;;;8.27;1.52;;;13.20;99.90;;;;;;5007623;28;20034;-70
2022/07/01 01:24:56;;;;;;;7.00;1.33;;;13.30;99.90;;;;;;5009961;28;20037;-70
2022/07/01 01:27:21;;;;;;;4.13;1.23;;;13.40;99.90;;;;;;5007142;28;20029;-71
2022/07/01 01:33:15;;;;;;;7.28;0.60;;;13.40;99.90;;;;;;4966174;28;20455;-66
2022/07/01 01:35:42;;;;;;;3.17;0.85;;;13.10;99.90;;;;;;4967743;28;20034;-64
2022/07/01 01:38:08;;;;;;;4.32;1.13;;;13.00;99.90;;;;;;4986101;28;20085;-67
2022/07/01 01:40:34;;;;;;;4.07;0.60;;;12.80;99.90;;;;;;4969154;28;20038;-68
2022/07/01 01:43:00;;;;;;;11.38;1.30;;;12.80;99.90;;;;;;4968210;28;20041;-69
2022/07/01 01:45:25;;;;;;;3.08;0.90;;;12.80;99.90;;;;;;4969039;28;20447;-69
2022/07/01 01:47:51;;;;;;;5.35;1.23;;;12.80;99.90;;;;;;4969208;28;20442;-70
2022/07/01 01:50:17;;;;;;;1.00;0.68;;;12.70;99.90;;;;;;4961534;28;20030;-70
2022/07/01 01:52:43;;;;;;;12.20;1.13;;;12.70;99.90;;;;;;4966240;28;20034;-72
2022/07/01 01:55:09;;;;;;;3.72;1.60;;;12.60;99.90;;;;;;4987352;28;20034;-72
2022/07/01 01:57:35;;;;;;;4.18;1.10;;;12.60;99.90;;;;;;4965203;28;20066;-72
2022/07/01 02:00:00;;;;;;;4.30;0.80;;;12.50;99.90;;;;;;4969978;28;20069;-72
2022/07/01 02:02:27;;;;;;;3.95;1.30;;;12.50;99.90;;;;;;4968560;28;20046;-73
2022/07/01 02:04:52;;;;;;;5.00;0.93;;;12.40;99.90;;;;;;4970986;28;20111;-72
2022/07/01 02:07:18;;;;;;;1.60;1.48;;;12.30;99.90;;;;;;4972156;28;20028;-72
2022/07/01 02:09:44;;;;;;;4.07;0.60;;;12.20;99.90;;;;;;4972129;28;20390;-72
2022/07/01 02:12:10;;;;;;;5.97;0.68;;;12.20;99.90;;;;;;4972867;28;20035;-73
2022/07/01 02:14:35;;;;;;;3.10;0.43;;;12.10;99.90;;;;;;4972373;28;20033;-71
2022/07/01 02:17:01;;;;;;;5.38;0.60;;;12.10;99.90;;;;;;4974530;28;20117;-74
2022/07/01 02:19:27;;;;;;;3.75;1.20;;;12.10;99.90;;;;;;4962572;28;20023;-74
2022/07/01 02:21:52;;;;;;;2.42;0.80;;;12.00;99.90;;;;;;4973366;28;20038;-72
2022/07/01 02:24:18;;;;;;;3.85;0.80;;;11.90;99.90;;;;;;4974504;28;20431;-72
2022/07/01 02:26:44;;;;;;;4.53;1.00;;;11.90;99.90;;;;;;4971549;28;20054;-71
2022/07/01 02:29:10;;;;;;;5.82;0.73;;;11.80;99.90;;;;;;4970997;28;20692;-72
2022/07/01 02:31:35;;;;;;;5.82;1.15;;;11.80;99.90;;;;;;4987425;28;20057;-72
2022/07/01 02:34:01;;;;;;;2.80;1.10;;;11.70;99.90;;;;;;5012496;28;20029;-73
2022/07/01 02:36:27;;;;;;;3.30;0.82;;;11.70;99.90;;;;;;5006499;28;20034;-72
2022/07/01 02:38:52;;;;;;;7.50;1.00;;;11.60;99.90;;;;;;5012555;28;20505;-73
2022/07/01 02:41:18;;;;;;;5.72;1.08;;;11.60;99.90;;;;;;5012819;28;20088;-72
2022/07/01 02:43:44;;;;;;;3.80;0.93;;;11.60;99.90;;;;;;5010019;28;20038;-73
2022/07/01 02:46:09;;;;;;;6.90;0.90;;;11.50;99.90;;;;;;5012934;28;20030;-72
2022/07/01 02:48:35;;;;;;;14.73;3.28;;;11.60;99.90;;;;;;5009877;28;20125;-73
2022/07/01 02:51:01;;;;;;;8.85;1.08;;;11.50;99.90;;;;;;5012297;28;20402;-73
2022/07/01 02:53:26;;;;;;;4.55;1.30;;;11.50;99.90;;;;;;5011105;28;20505;-74
2022/07/01 02:55:52;;;;;;;4.15;1.38;;;11.50;99.90;;;;;;5013031;28;20032;-73
2022/07/01 02:58:18;;;;;;;4.53;1.10;;;11.40;99.90;;;;;;5009285;28;20026;-75
2022/07/01 03:00:44;;;;;;;4.28;2.05;;;11.40;99.90;;;;;;5011114;28;20036;-75
2022/07/01 03:03:10;;;;;;;4.03;1.30;;;11.40;99.90;;;;;;5012872;28;20481;-74
2022/07/01 03:05:36;;;;;;;11.05;2.55;;;11.50;99.90;;;;;;5010910;28;20057;-75
2022/07/01 03:08:02;;;;;;;7.35;2.00;;;11.50;99.90;;;;;;5013000;28;20026;-76
2022/07/01 03:10:28;;;;;;;9.98;3.45;;;11.40;99.90;;;;;;5009567;28;20389;-76
2022/07/01 03:12:53;;;;;;;3.92;1.52;;;11.40;99.90;;;;;;5012219;28;20026;-75
2022/07/01 03:15:19;;;;;;;3.78;1.42;;;11.30;99.90;;;;;;5012685;28;20080;-76
2022/07/01 03:17:46;;;;;;;4.97;1.80;;;11.30;99.90;;;;;;5010957;28;20037;-75
2022/07/01 03:20:16;;;;;;;8.38;1.50;;;11.20;99.90;;;;;;5011972;28;20088;-76
2022/07/01 03:22:44;;;;;;;6.80;1.38;;;11.20;99.90;;;;;;5010629;28;20531;-75
2022/07/01 03:25:10;;;;;;;3.75;1.27;;;11.20;99.90;;;;;;5012507;28;20482;-75
2022/07/01 03:27:36;;;;;;;8.07;2.28;;;11.20;99.90;;;;;;5010384;28;20032;-75
2022/07/01 03:30:05;;;;;;;2.50;1.70;;;11.20;99.90;;;;;;5011292;28;20022;-74
2022/07/01 03:32:31;;;;;;;8.40;3.17;;;11.20;99.90;;;;;;5009792;28;20559;-74
2022/07/01 03:34:57;;;;;;;3.97;2.25;;;11.20;99.90;;;;;;5012292;28;20022;-74
2022/07/01 03:37:23;;;;;;;7.90;2.00;;;11.20;99.90;;;;;;5010292;28;20087;-74
2022/07/01 03:39:50;;;;;;;4.60;1.80;;;11.20;99.90;;;;;;5011441;28;20052;-73
2022/07/01 03:42:16;;;;;;;8.20;2.00;;;11.10;99.90;;;;;;5011522;28;20029;-73
2022/07/01 03:44:43;;;;;;;7.57;1.67;;;11.20;99.90;;;;;;5010307;28;20038;-72
2022/07/01 03:47:09;;;;;;;5.18;1.90;;;11.10;99.90;;;;;;5012043;28;20486;-73
2022/07/01 03:49:35;;;;;;;5.40;1.50;;;11.20;99.90;;;;;;5009596;28;20040;-74
2022/07/01 03:52:02;;;;;;;4.85;1.80;;;11.30;99.90;;;;;;5011026;28;20084;-74
2022/07/01 03:54:32;;;;;;;5.18;2.22;;;11.40;99.90;;;;;;5010209;28;20030;-74
2022/07/01 03:57:06;;;;;;;7.13;2.50;;;11.40;99.90;;;;;;5011167;28;20116;-73
2022/07/01 03:59:37;;;;;;;4.78;2.13;;;11.40;99.90;;;;;;5007460;28;20037;-74
2022/07/01 04:02:04;;;;;;;8.80;2.25;;;11.50;99.90;;;;;;5011752;28;20060;-75
2022/07/01 04:04:30;;;;;;;6.20;2.30;;;11.60;99.90;;;;;;5010044;28;20030;-73
2022/07/01 04:06:58;;;;;;;11.07;2.67;;;11.60;99.90;;;;;;5010686;28;20030;-73
2022/07/01 04:09:24;;;;;;;6.45;2.60;;;11.60;99.90;;;;;;5009912;28;20088;-73
2022/07/01 04:11:50;;;;;;;2.97;1.98;;;11.50;99.90;;;;;;5011304;28;20038;-73
2022/07/01 04:14:16;;;;;;;4.35;2.45;;;11.50;99.90;;;;;;5010211;28;20058;-74
2022/07/01 04:16:44;;;;;;;4.15;2.33;;;11.50;99.90;;;;;;5006480;28;20072;-73
2022/07/01 04:19:09;;;;;;;6.25;2.30;;;11.50;99.90;;;;;;5006554;28;20029;-73
2022/07/01 04:24:22;;;;;;;6.07;2.08;;;11.50;99.90;;;;;;5008031;28;20111;-73
2022/07/01 04:26:49;;;;;;;4.85;2.10;;;11.40;99.90;;;;;;5010453;28;20034;-73
2022/07/01 04:29:15;;;;;;;6.18;3.00;;;11.40;99.90;;;;;;5010333;28;20033;-73
2022/07/01 04:31:41;;;;;;;8.02;2.30;;;11.40;99.90;;;;;;5008090;28;20567;-75
2022/07/01 04:34:07;;;;;;;4.55;2.17;;;11.40;99.90;;;;;;5011105;28;20030;-73
2022/07/01 04:36:34;;;;;;;4.22;1.95;;;11.40;99.90;;;;;;5003195;28;20033;-75
2022/07/01 04:39:00;;;;;;;9.80;2.28;;;11.40;99.90;;;;;;5011326;28;20478;-75
2022/07/01 04:44:10;;;;;;;5.03;2.03;;;11.30;99.90;;;;;;5011356;28;20159;-73
2022/07/01 04:46:36;;;;;;;5.30;1.77;;;11.30;99.90;;;;;;5002839;28;20120;-73
2022/07/01 04:49:02;;;;;;;3.75;1.83;;;11.30;99.90;;;;;;5011004;28;20034;-73
2022/07/01 04:51:28;;;;;;;4.95;1.92;;;11.30;99.90;;;;;;5009556;28;20029;-73
2022/07/01 04:53:54;;;;;;;7.50;1.88;;;11.30;99.90;;;;;;5011042;28;20393;-72
2022/07/01 04:56:20;;;;;;;5.15;1.63;;;11.40;99.90;;;;;;5002208;28;20036;-73
2022/07/01 04:58:45;;;;;;;5.30;1.50;;;11.50;99.90;;;;;;5009286;28;20037;-72
2022/07/01 05:01:11;;;;;;;6.57;1.90;;;11.50;99.90;;;;;;5008858;28;20397;-73
2022/07/01 05:03:37;;;;;;;9.85;2.70;;;11.50;99.90;;;;;;5002746;28;20026;-73
2022/07/01 05:06:03;;;;;;;5.47;1.45;;;11.50;99.90;;;;;;5010663;28;20041;-75
2022/07/01 05:08:28;;;;;;;4.93;1.40;;;11.60;99.90;;;;;;5008131;28;20057;-74
2022/07/01 05:10:58;;;;;;;3.78;1.50;;;11.60;99.90;;;;;;5010219;28;20123;-74
2022/07/01 05:13:23;;;;;;;4.43;1.52;;;11.60;99.90;;;;;;5000266;28;20033;-73
2022/07/01 05:15:49;;;;;;;3.10;2.13;;;11.70;99.90;;;;;;5009095;28;20390;-72
2022/07/01 05:23:44;;;;;;;4.07;2.35;;;11.70;99.90;;;;;;5008611;28;20053;-74
2022/07/01 05:26:15;;;;;;;5.35;1.92;;;11.70;99.90;;;;;;5005106;28;20387;-73
2022/07/01 05:28:41;;;;;;;7.07;2.50;;;11.70;99.90;;;;;;5008317;28;20034;-73
2022/07/01 05:31:07;;;;;;;8.05;2.08;;;11.70;99.90;;;;;;5008645;28;20536;-74
2022/07/01 05:33:32;;;;;;;7.85;2.00;;;11.80;99.90;;;;;;5005594;28;20044;-74
2022/07/01 05:35:58;;;;;;;6.47;2.08;;;11.90;99.90;;;;;;5009861;28;20038;-75
2022/07/01 05:38:24;;;;;;;5.47;2.35;;;12.00;99.90;;;;;;5008022;28;20100;-74
2022/07/01 05:40:52;;;;;;;3.80;2.03;;;12.00;99.90;;;;;;5005635;28;20027;-74
2022/07/01 05:43:18;;;;;;;5.82;2.45;;;12.00;99.90;;;;;;5008483;28;20551;-73
2022/07/01 05:45:43;;;;;;;6.05;2.22;;;12.00;99.90;;;;;;5007410;28;20026;-72
2022/07/01 05:48:09;;;;;;;9.95;3.78;;;12.00;99.90;;;;;;5010211;28;20033;-73
2022/07/01 05:50:35;;;;;;;7.90;3.20;;;12.00;99.90;;;;;;5008171;28;20037;-73
2022/07/01 05:53:00;;;;;;;6.57;1.83;;;12.10;99.90;;;;;;5009173;28;20044;-73
2022/07/01 05:55:26;;;;;;;9.93;2.90;;;12.10;99.90;;;;;;5005689;28;20022;-75
2022/07/01 05:57:52;;;;;;;7.35;2.30;;;12.10;99.90;;;;;;5004347;28;20038;-74
2022/07/01 06:00:18;;;;;;;8.27;2.05;;;12.20;99.90;;;;;;5006724;28;20026;-75
2022/07/01 06:02:44;;;;;;;6.55;1.70;;;12.30;99.90;;;;;;5000834;28;20383;-74
2022/07/01 06:05:09;;;;;;;7.45;1.95;;;12.40;99.90;;;;;;5002774;28;20509;-76
2022/07/01 06:07:35;;;;;;;8.05;1.77;;;12.50;99.90;;;;;;5006411;28;20057;-76
2022/07/01 06:10:01;;;;;;;5.55;1.63;;;12.50;99.90;;;;;;5009351;28;20018;-76
2022/07/01 06:12:26;;;;;;;4.43;1.02;;;12.60;99.90;;;;;;5001217;28;20029;-76
2022/07/01 06:14:52;;;;;;;5.28;1.98;;;12.80;99.90;;;;;;5012774;28;20026;-77
2022/07/01 06:17:18;;;;;;;7.40;2.00;;;12.90;99.90;;;;;;5007899;28;20378;-74
2022/07/01 06:19:43;;;;;;;12.20;2.58;;;12.90;99.90;;;;;;5007605;28;20053;-74
2022/07/01 06:22:10;;;;;;;2.35;1.38;;;12.90;99.90;;;;;;5008446;28;20026;-76
2022/07/01 06:24:36;;;;;;;7.78;1.50;;;13.00;99.90;;;;;;5006286;28;20022;-75
2022/07/01 06:27:03;;;;;;;8.63;1.67;;;13.10;99.90;;;;;;4999855;28;20040;-72
2022/07/01 06:29:29;;;;;;;7.30;1.23;;;13.20;99.90;;;;;;5002445;28;20046;-73
2022/07/01 06:31:55;;;;;;;3.75;1.40;;;13.30;99.90;;;;;;5008839;28;20104;-73
2022/07/01 06:34:20;;;;;;;5.85;1.05;;;13.30;99.90;;;;;;5009047;28;20033;-73
2022/07/01 06:36:46;;;;;;;4.07;1.17;;;13.40;99.90;;;;;;5006184;28;20030;-73
2022/07/01 06:39:12;;;;;;;8.85;2.22;;;13.40;99.90;;;;;;5009445;28;20029;-73
2022/07/01 06:41:37;;;;;;;6.07;1.45;;;13.40;99.90;;;;;;5006813;28;20037;-73
2022/07/01 06:44:04;;;;;;;4.38;1.45;;;13.50;99.90;;;;;;5004611;28;20470;-73
2022/07/01 06:46:31;;;;;;;5.82;1.40;;;13.50;99.90;;;;;;5006748;28;20026;-73
2022/07/01 06:48:58;;;;;;;4.95;1.35;;;13.60;99.90;;;;;;5004877;28;20098;-73
2022/07/01 06:51:24;;;;;;;3.25;1.05;;;13.60;99.90;;;;;;5005608;28;20030;-71
2022/07/01 06:53:50;;;;;;;6.63;1.40;;;13.60;99.90;;;;;;5001749;28;20374;-72
2022/07/01 06:56:16;;;;;;;3.65;0.93;;;13.70;99.90;;;;;;5013142;28;20080;-72
2022/07/01 06:58:42;;;;;;;4.85;1.45;;;13.80;99.90;;;;;;5008865;28;20549;-73
2022/07/01 07:01:08;;;;;;;6.15;1.33;;;13.80;99.90;;;;;;5004618;28;20447;-76
2022/07/01 07:03:34;;;;;;;6.82;1.40;;;13.80;99.90;;;;;;5005629;28;20129;-75
2022/07/01 07:06:00;;;;;;;1.73;0.70;;;13.90;99.90;;;;;;5011618;28;20018;-74
2022/07/01 07:08:27;;;;;;;4.40;1.50;;;13.90;99.90;;;;;;5007311;28;20034;-75
2022/07/01 07:10:52;;;;;;;2.20;0.90;;;14.10;99.90;;;;;;5006893;28;20485;-74
2022/07/01 07:13:18;;;;;;;8.38;1.70;;;14.10;99.90;;;;;;5010917;28;20034;-74
2022/07/01 07:15:44;;;;;;;1.95;0.95;;;14.20;99.90;;;;;;5001104;28;20076;-73
2022/07/01 07:18:10;;;;;;;2.35;0.90;;;14.40;99.90;;;;;;5009358;28;20034;-72
2022/07/01 07:20:36;;;;;;;5.72;0.73;;;14.50;99.90;;;;;;5007641;28;20037;-72
2022/07/01 07:23:02;;;;;;;4.05;1.30;;;14.50;99.90;;;;;;5008189;28;20049;-72
2022/07/01 07:25:28;;;;;;;2.10;0.65;;;14.60;99.90;;;;;;5012444;28;20054;-74
2022/07/01 07:27:53;;;;;;;3.00;0.80;;;14.70;99.90;;;;;;4996790;28;20486;-72
2022/07/01 07:30:19;;;;;;;5.40;1.75;;;14.80;99.90;;;;;;5004778;28;20080;-73
2022/07/01 07:32:45;;;;;;;4.75;0.77;;;14.90;99.90;;;;;;5009960;28;20038;-72
2022/07/01 07:35:12;;;;;;;1.33;0.70;;;15.00;99.90;;;;;;5011865;28;20386;-72
2022/07/01 07:37:38;;;;;;;4.80;0.70;;;15.10;99.90;;;;;;5009108;28;20034;-72
2022/07/01 07:40:07;;;;;;;3.70;0.68;;;15.10;99.90;;;;;;5010495;28;20156;-71
2022/07/01 07:42:33;;;;;;;2.92;0.60;;;15.10;99.90;;;;;;5009626;28;20045;-71
2022/07/01 07:44:59;;;;;;;5.32;0.77;;;15.10;99.90;;;;;;5010441;28;20108;-71
2022/07/01 07:47:25;;;;;;;2.08;0.55;;;15.20;99.90;;;;;;5008394;28;20104;-70
2022/07/01 07:49:50;;;;;;;2.70;0.68;;;15.40;99.90;;;;;;5011073;28;20461;-71
2022/07/01 07:52:16;;;;;;;4.88;1.58;;;15.60;99.90;;;;;;5011062;28;20481;-71
2022/07/01 07:54:41;;;;;;;4.88;0.88;;;15.90;99.90;;;;;;5008362;28;20557;-71
2022/07/01 07:57:07;;;;;;;2.75;0.50;;;16.00;99.90;;;;;;5005533;28;20061;-71
2022/07/01 07:59:34;;;;;;;2.72;0.80;;;16.10;99.90;;;;;;5007710;28;20052;-71
2022/07/01 08:01:59;;;;;;;0.75;0.40;;;16.00;99.90;;;;;;5010879;28;20038;-70
2022/07/01 08:04:25;;;;;;;3.10;0.50;;;16.00;99.90;;;;;;5008530;28;20033;-70
2022/07/01 08:06:51;;;;;;;1.02;0.47;;;16.10;99.90;;;;;;5009186;28;20030;-71
2022/07/01 08:09:16;;;;;;;2.97;0.60;;;16.20;99.90;;;;;;5013645;28;20121;-71
2022/07/01 08:11:42;;;;;;;4.55;1.10;;;16.10;99.90;;;;;;5006193;28;20037;-71
2022/07/01 08:14:08;;;;;;;2.58;0.70;;;16.20;99.90;;;;;;5006572;28;20022;-69
2022/07/01 08:16:34;;;;;;;4.00;0.70;;;16.20;99.90;;;;;;5001425;28;20061;-70
2022/07/01 08:19:02;;;;;;;3.88;0.40;;;16.30;99.90;;;;;;5004448;28;20084;-72
2022/07/01 08:21:28;;;;;;;2.55;0.50;;;16.30;99.90;;;;;;5003680;28;20087;-71
2022/07/01 08:23:54;;;;;;;1.52;0.57;;;16.30;99.90;;;;;;5004846;28;20684;-67
2022/07/01 08:26:20;;;;;;;6.38;0.80;;;16.40;99.90;;;;;;5007981;28;20705;-67
2022/07/01 08:28:46;;;;;;;2.03;0.75;;;16.40;99.90;;;;;;5000451;28;20424;-67
2022/07/01 08:31:13;;;;;;;3.38;0.38;;;16.40;99.90;;;;;;5007781;28;20594;-65
2022/07/01 08:33:41;;;;;;;2.67;0.50;;;16.40;99.90;;;;;;5004926;28;20117;-68
2022/07/01 08:36:07;;;;;;;1.63;0.40;;;16.50;99.90;;;;;;5011079;28;20105;-68
2022/07/01 08:38:33;;;;;;;1.17;0.60;;;16.60;99.90;;;;;;4999247;28;20193;-68
2022/07/01 08:41:00;;;;;;;3.85;0.50;;;16.70;99.90;;;;;;5004962;28;20491;-65
2022/07/01 08:43:26;;;;;;;0.82;0.38;;;16.80;99.90;;;;;;4999942;28;20034;-66
2022/07/01 08:45:52;;;;;;;2.85;0.50;;;16.70;99.90;;;;;;5008555;28;20055;-66
2022/07/01 08:48:18;;;;;;;4.53;0.50;;;16.70;99.90;;;;;;5007173;28;20026;-67
2022/07/01 08:50:44;;;;;;;2.05;1.10;;;16.80;99.90;;;;;;4999158;28;20052;-66
2022/07/01 08:53:11;;;;;;;3.92;0.60;;;16.80;99.90;;;;;;5004940;28;20028;-67
2022/07/01 08:58:24;;;;;;;2.42;0.60;;;17.00;99.90;;;;;;5000268;28;20053;-67
2022/07/01 09:00:50;;;;;;;1.45;0.35;;;17.10;99.90;;;;;;5003594;28;20026;-66
2022/07/01 09:03:15;;;;;;;2.03;0.50;;;17.00;99.90;;;;;;5000877;28;20609;-67
2022/07/01 09:05:49;;;;;;;1.92;0.60;;;17.10;99.90;;;;;;5002666;28;20026;-67
2022/07/01 09:08:15;;;;;;;4.78;0.73;;;17.20;99.90;;;;;;5004540;28;20560;-67
2022/07/01 09:10:41;;;;;;;4.82;0.70;;;17.00;99.90;;;;;;5000680;28;20086;-66
2022/07/01 09:13:08;;;;;;;2.97;0.80;;;17.20;99.90;;;;;;5003979;28;20029;-67
2022/07/01 09:15:36;;;;;;;3.70;0.60;;;17.60;99.90;;;;;;5006061;28;20044;-67
2022/07/01 09:18:16;;;;;;;4.15;0.70;;;17.60;99.90;;;;;;5004328;28;20105;-68
2022/07/01 09:20:44;;;;;;;1.55;0.70;;;17.60;99.90;;;;;;5001560;28;20550;-67
2022/07/01 09:23:16;;;;;;;3.17;1.42;;;17.40;99.90;;;;;;5005656;28;20041;-66
2022/07/01 09:25:47;;;;;;;;;;;17.50;99.90;;;;;;4997343;28;20030;-67
2022/07/01 09:28:16;;;;;;;8.60;0.98;;;17.80;99.90;;;;;;5001894;28;19931;-67
2022/07/01 09:30:46;;;;;;;1.83;0.60;;;17.70;99.90;;;;;;5002434;28;20018;-67
2022/07/01 09:33:24;;;;;;;9.00;1.20;;;17.80;99.90;;;;;;4999056;28;20053;-67
2022/07/01 09:35:50;;;;;;;4.43;0.73;;;18.00;99.90;;;;;;4998155;28;20024;-66
2022/07/01 09:38:26;;;;;;;1.88;0.40;;;17.80;99.90;;;;;;4999701;28;20458;-66
2022/07/01 09:40:54;;;;;;;3.75;0.82;;;17.50;99.90;;;;;;5002624;28;20393;-67
2022/07/01 09:43:34;;;;;;;6.22;0.75;;;17.80;99.90;;;;;;4998682;28;20045;-67
2022/07/01 09:46:01;;;;;;;6.40;0.93;;;17.90;99.90;;;;;;5004520;28;20470;-67
2022/07/01 09:48:47;;;;;;;4.03;1.15;;;17.80;99.90;;;;;;5005431;28;20099;-67
2022/07/01 09:51:15;;;;;;;2.22;1.45;;;18.20;99.90;;;;;;5003625;28;20031;-66
2022/07/01 09:53:42;;;;;;;3.90;1.55;;;18.10;99.90;;;;;;5001910;28;20034;-67
2022/07/01 09:56:08;;;;;;;5.65;0.93;;;18.20;99.90;;;;;;5005687;28;20030;-66
2022/07/01 09:58:35;;;;;;;3.80;0.77;;;18.20;99.90;;;;;;4997709;28;20083;-65
2022/07/01 10:01:02;;;;;;;3.38;0.93;;;18.20;99.90;;;;;;5002830;28;20038;-66
2022/07/01 10:03:31;;;;;;;3.80;0.80;;;18.50;99.90;;;;;;5001916;28;20037;-68
2022/07/01 10:06:13;;;;;;;4.03;0.70;;;18.50;99.90;;;;;;5002833;28;20024;-66
2022/07/01 10:09:00;;;;;;;5.00;1.30;;;18.60;99.90;;;;;;4993268;28;20030;-66
2022/07/01 10:11:26;;;;;;;2.85;0.95;;;18.80;99.90;;;;;;5000122;28;20045;-67
2022/07/01 10:13:53;;;;;;;2.60;0.80;;;18.70;99.90;;;;;;4997725;28;20030;-67
2022/07/01 10:16:20;;;;;;;2.08;0.52;;;18.50;99.90;;;;;;4998479;28;20022;-67
2022/07/01 10:18:45;;;;;;;5.78;1.00;;;18.50;99.90;;;;;;5002212;28;20033;-66
2022/07/01 10:21:29;;;;;;;4.53;0.50;;;18.60;99.90;;;;;;5006156;28;20149;-66
2022/07/01 10:24:14;;;;;;;5.43;0.88;;;18.50;99.90;;;;;;4998672;28;20108;-66
2022/07/01 10:26:41;;;;;;;3.85;0.63;;;18.40;99.90;;;;;;5007183;28;20028;-67
2022/07/01 10:29:33;;;;;;;7.50;0.65;;;18.30;99.90;;;;;;5011259;28;20030;-67
2022/07/01 10:32:20;;;;;;;4.43;0.88;;;18.30;99.90;;;;;;5009522;28;20041;-67
2022/07/01 10:34:45;;;;;;;4.53;0.77;;;18.40;99.90;;;;;;5000171;28;20029;-67
2022/07/01 10:37:12;;;;;;;3.08;0.68;;;18.30;99.90;;;;;;5003371;28;20030;-67
2022/07/01 10:40:08;;;;;;;4.90;1.02;;;18.40;99.90;;;;;;5007208;28;20033;-66
2022/07/01 10:42:54;;;;;;;6.15;0.90;;;18.50;99.90;;;;;;4987389;28;20042;-67
2022/07/01 10:45:20;;;;;;;5.13;0.85;;;18.60;99.90;;;;;;5007878;28;20041;-66
2022/07/01 10:47:46;;;;;;;4.28;0.80;;;18.80;99.90;;;;;;5001117;28;20038;-67
2022/07/01 10:50:15;;;;;;;4.75;0.90;;;18.90;99.90;;;;;;5005939;28;20121;-66
2022/07/01 10:53:04;;;;;;;5.75;0.77;;;18.80;99.90;;;;;;4999188;28;20026;-67
2022/07/01 10:55:37;;;;;;;3.00;0.95;;;18.60;99.90;;;;;;5004923;28;20022;-67
2022/07/01 10:58:03;;;;;;;6.30;0.80;;;18.70;99.90;;;;;;5002516;28;20052;-65
2022/07/01 11:00:31;;;;;;;6.75;0.95;;;18.80;99.90;;;;;;5000538;28;20022;-66
2022/07/01 11:03:06;;;;;;;5.07;1.05;;;18.80;99.90;;;;;;5004390;28;20048;-67
2022/07/01 11:05:32;;;;;;;6.97;0.90;;;18.80;99.90;;;;;;5005338;28;20180;-66
2022/07/01 11:07:57;;;;;;;5.50;0.80;;;18.90;99.90;;;;;;5008509;28;20144;-65
2022/07/01 11:10:23;;;;;;;6.70;0.90;;;18.90;99.90;;;;;;4999861;28;20113;-67
2022/07/01 11:12:51;;;;;;;6.05;1.15;;;19.10;99.90;;;;;;5006423;28;20033;-66
2022/07/01 11:15:17;;;;;;;4.40;1.27;;;19.40;99.90;;;;;;5002124;28;20026;-66
2022/07/01 11:17:48;;;;;;;4.93;0.60;;;19.40;99.90;;;;;;5004388;28;20416;-67
2022/07/01 11:20:14;;;;;;;5.75;0.75;;;19.20;99.90;;;;;;5005376;28;20090;-66
2022/07/01 11:22:40;;;;;;;6.82;0.93;;;19.00;99.90;;;;;;5002451;28;20102;-67
2022/07/01 11:25:11;;;;;;;8.50;0.95;;;19.30;99.90;;;;;;5007799;28;20115;-69
2022/07/01 11:27:38;;;;;;;4.55;0.60;;;19.90;99.90;;;;;;5006187;28;20038;-67
2022/07/01 11:30:11;;;;;;;4.35;1.00;;;20.20;99.90;;;;;;5001308;28;20447;-67
2022/07/01 11:32:43;;;;;;;5.40;0.63;;;20.30;99.90;;;;;;5003529;28;20061;-66
2022/07/01 11:40:59;;;;;;;3.33;1.20;;;20.70;99.90;;;;;;5003973;28;20080;-67
2022/07/01 11:43:29;;;;;;;3.85;0.88;;;20.80;99.90;;;;;;5006262;28;20038;-67
2022/07/01 11:45:57;;;;;;;3.33;0.88;;;20.80;99.90;;;;;;5001274;28;20030;-66
2022/07/01 11:48:40;;;;;;;5.60;0.60;;;21.10;99.90;;;;;;5009256;28;20037;-66
2022/07/01 11:51:09;;;;;;;3.72;0.80;;;21.20;99.90;;;;;;5006611;28;20470;-66
2022/07/01 11:53:36;;;;;;;4.80;1.05;;;21.30;99.90;;;;;;5004924;28;20084;-66
2022/07/01 11:56:02;;;;;;;4.60;0.75;;;21.10;99.90;;;;;;5000750;28;20033;-65
2022/07/01 11:58:41;;;;;;;7.35;1.27;;;21.30;99.90;;;;;;5004230;28;20497;-66
2022/07/01 12:01:08;;;;;;;4.72;0.98;;;21.50;99.90;;;;;;5002375;28;20030;-67
2022/07/01 12:03:35;;;;;;;7.50;1.20;;;21.80;99.90;;;;;;5001665;28;20040;-66
2022/07/01 12:06:02;;;;;;;7.88;0.77;;;22.10;99.90;;;;;;5004905;28;20375;-66
2022/07/01 12:08:28;;;;;;;5.28;0.80;;;22.00;99.90;;;;;;5002563;28;20038;-66
2022/07/01 12:10:54;;;;;;;4.57;0.90;;;21.80;99.90;;;;;;5026311;28;20018;-66
2022/07/01 12:13:24;;;;;;;4.80;1.27;;;21.60;99.90;;;;;;5003273;28;20577;-65
2022/07/01 12:15:50;;;;;;;4.43;0.85;;;21.50;99.90;;;;;;5005096;28;20026;-65
2022/07/01 12:18:16;;;;;;;7.32;1.10;;;21.50;99.90;;;;;;5008006;28;20022;-66
2022/07/01 12:20:54;;;;;;;6.03;0.77;;;21.60;99.90;;;;;;4998733;28;20027;-66
2022/07/01 12:23:20;;;;;;;3.05;0.70;;;21.80;99.90;;;;;;5008260;28;20148;-66
2022/07/01 12:25:50;;;;;;;9.20;0.95;;;21.70;99.90;;;;;;5000694;28;20140;-65
2022/07/01 12:28:29;;;;;;;3.75;0.65;;;21.90;99.90;;;;;;5007545;28;20040;-65
2022/07/01 12:31:06;;;;;;;3.65;0.68;;;22.10;99.40;;;;;;4998517;28;20065;-62
2022/07/01 12:33:34;;;;;;;3.15;0.57;;;22.30;99.50;;;;;;4999139;28;20048;-64
2022/07/01 12:36:04;;;;;;;3.30;0.73;;;21.80;99.40;;;;;;5000174;28;20544;-64
2022/07/01 12:38:31;;;;;;;4.32;0.73;;;21.90;99.90;;;;;;5001195;28;20053;-65
2022/07/01 12:40:57;;;;;;;4.50;0.77;;;21.80;99.90;;;;;;4994248;28;20027;-64
2022/07/01 12:43:29;;;;;;;5.93;0.70;;;21.80;99.90;;;;;;5002072;28;20049;-66
2022/07/01 12:45:59;;;;;;;2.67;0.50;;;22.20;98.40;;;;;;5003623;28;20030;-66
2022/07/01 12:48:25;;;;;;;6.97;0.98;;;22.40;98.10;;;;;;5000704;28;20061;-67
2022/07/01 12:50:57;;;;;;;5.63;0.75;;;22.60;99.60;;;;;;5002167;28;20033;-66
2022/07/01 12:53:25;;;;;;;7.85;1.13;;;22.50;98.40;;;;;;5001695;28;20026;-66
2022/07/01 12:55:54;;;;;;;2.88;0.75;;;22.60;99.60;;;;;;5001095;28;20040;-66
2022/07/01 12:58:23;;;;;;;2.22;0.68;;;22.50;99.50;;;;;;5001757;28;20044;-67
2022/07/01 13:00:55;;;;;;;8.55;0.70;;;22.30;97.30;;;;;;4999937;28;20029;-67
2022/07/01 13:03:23;;;;;;;3.28;0.60;;;21.90;99.90;;;;;;5004295;28;20038;-67
2022/07/01 13:05:51;;;;;;;2.72;0.77;;;22.40;97.20;;;;;;5005334;28;20030;-67
2022/07/01 13:08:17;;;;;;;3.70;0.50;;;22.60;97.50;;;;;;5004997;28;20052;-67
2022/07/01 13:10:44;;;;;;;4.38;0.95;;;22.30;98.60;;;;;;5002546;28;20030;-67